createdAt,value
2023-04-30T00:01:10.512Z,48.55
2023-04-30T00:03:37.372Z,48.74
2023-04-30T00:06:04.052Z,48.81
2023-04-30T00:08:30.641Z,48.74
2023-04-30T00:10:57.364Z,49.17
2023-04-30T00:13:23.961Z,49.39
2023-04-30T00:15:51.360Z,49.55
2023-04-30T00:18:18.056Z,49.60
2023-04-30T00:20:44.634Z,49.79
2023-04-30T00:23:11.190Z,49.81
2023-04-30T00:25:37.726Z,50.13
2023-04-30T00:28:04.464Z,50.59
2023-04-30T00:30:55.914Z,50.88
2023-04-30T00:33:35.200Z,51.49
2023-04-30T00:36:01.846Z,51.79
2023-04-30T00:38:28.414Z,52.03
2023-04-30T00:40:55.049Z,52.58
2023-04-30T00:43:21.586Z,52.81
2023-04-30T00:45:48.152Z,52.95
2023-04-30T00:51:04.907Z,53.55
2023-04-30T00:53:32.362Z,53.64
2023-04-30T00:55:59.648Z,53.70
2023-04-30T00:58:26.335Z,53.75
2023-04-30T01:00:53.409Z,54.08
2023-04-30T01:03:20.493Z,54.37
2023-04-30T01:06:11.676Z,54.12
2023-04-30T01:08:53.836Z,53.71
2023-04-30T01:11:33.204Z,53.72
2023-04-30T01:14:10.545Z,54.36
2023-04-30T01:16:43.952Z,54.15
2023-04-30T01:19:36.785Z,54.59
2023-04-30T01:22:04.915Z,54.90
2023-04-30T01:25:08.447Z,54.93
2023-04-30T01:27:58.133Z,54.91
2023-04-30T01:30:26.009Z,55.36
2023-04-30T01:32:52.577Z,55.62
2023-04-30T01:35:19.179Z,55.10
2023-04-30T01:38:00.693Z,55.41
2023-04-30T01:40:46.628Z,55.58
2023-04-30T01:43:18.800Z,55.05
2023-04-30T01:46:07.334Z,55.51
2023-04-30T01:49:22.814Z,55.41
2023-04-30T01:51:57.425Z,55.74
2023-04-30T01:54:29.227Z,55.98
2023-04-30T01:57:05.092Z,56.34
2023-04-30T01:59:34.707Z,56.50
2023-04-30T02:02:02.160Z,56.29
2023-04-30T02:04:34.064Z,56.48
2023-04-30T02:07:01.183Z,56.92
2023-04-30T02:09:27.792Z,56.96
2023-04-30T02:11:54.319Z,56.90
2023-04-30T02:17:51.289Z,56.65
2023-04-30T02:20:22.702Z,56.50
2023-04-30T02:22:49.309Z,56.29
2023-04-30T02:25:16.051Z,56.40
2023-04-30T02:27:42.602Z,56.19
2023-04-30T02:30:09.374Z,56.36
2023-04-30T02:32:36.135Z,57.06
2023-04-30T02:35:02.743Z,56.91
2023-04-30T02:37:29.326Z,57.08
2023-04-30T02:39:56.230Z,57.05
2023-04-30T02:42:23.056Z,56.09
2023-04-30T02:44:49.653Z,55.37
2023-04-30T02:47:16.269Z,55.27
2023-04-30T02:50:42.796Z,55.15
2023-04-30T02:53:31.338Z,55.37
2023-04-30T02:55:59.194Z,55.15
2023-04-30T02:58:26.651Z,55.15
2023-04-30T03:00:53.283Z,54.78
2023-04-30T03:03:20.042Z,55.05
2023-04-30T03:05:46.714Z,55.06
2023-04-30T03:10:48.504Z,55.12
2023-04-30T03:13:15.070Z,54.76
2023-04-30T03:15:41.602Z,55.09
2023-04-30T03:18:27.182Z,54.68
2023-04-30T03:21:20.730Z,55.76
2023-04-30T03:24:09.207Z,55.68
2023-04-30T03:26:35.975Z,55.67
2023-04-30T03:29:02.638Z,55.67
2023-04-30T03:31:29.259Z,55.92
2023-04-30T03:33:56.113Z,56.09
2023-04-30T03:36:22.787Z,56.69
2023-04-30T03:38:49.388Z,57.64
2023-04-30T03:41:16.024Z,57.75
2023-04-30T03:43:42.614Z,58.82
2023-04-30T03:46:09.243Z,59.56
2023-04-30T03:48:35.969Z,59.74
2023-04-30T03:51:02.661Z,60.14
2023-04-30T03:54:16.068Z,59.80
2023-04-30T03:56:46.372Z,61.08
2023-04-30T03:59:18.213Z,61.72
2023-04-30T04:01:44.884Z,62.25
2023-04-30T04:04:11.795Z,62.22
2023-04-30T04:06:38.382Z,64.67
2023-04-30T04:09:05.109Z,64.53
2023-04-30T04:11:31.896Z,65.04
2023-04-30T04:16:47.279Z,63.69
2023-04-30T04:19:14.294Z,64.02
2023-04-30T04:21:40.896Z,64.19
2023-04-30T04:24:08.786Z,65.74
2023-04-30T04:26:36.510Z,65.94
2023-04-30T04:29:34.622Z,65.71
2023-04-30T04:32:19.623Z,68.31
2023-04-30T04:34:46.207Z,69.21
2023-04-30T04:37:12.788Z,69.18
2023-04-30T04:39:39.335Z,69.01
2023-04-30T04:42:05.878Z,70.00
2023-04-30T04:44:32.459Z,69.92
2023-04-30T04:49:34.276Z,69.63
2023-04-30T04:52:02.016Z,69.67
2023-04-30T04:54:34.741Z,68.88
2023-04-30T04:57:01.459Z,67.95
2023-04-30T04:59:28.014Z,68.64
2023-04-30T05:02:06.562Z,69.54
2023-04-30T05:04:58.160Z,68.85
2023-04-30T05:07:52.442Z,68.24
2023-04-30T05:10:19.083Z,67.39
2023-04-30T05:12:45.750Z,67.78
2023-04-30T05:15:12.338Z,67.88
2023-04-30T05:17:38.954Z,67.41
2023-04-30T05:20:07.444Z,67.33
2023-04-30T05:22:49.158Z,67.78
2023-04-30T05:25:15.890Z,68.13
2023-04-30T05:27:42.488Z,68.66
2023-04-30T05:30:09.948Z,67.79
2023-04-30T05:33:01.504Z,68.09
2023-04-30T05:36:02.318Z,67.83
2023-04-30T05:38:29.004Z,67.96
2023-04-30T05:40:55.597Z,68.71
2023-04-30T05:43:22.159Z,68.58
2023-04-30T05:45:49.004Z,68.98
2023-04-30T05:48:15.659Z,68.93
2023-04-30T05:50:42.500Z,68.23
2023-04-30T05:53:09.103Z,68.10
2023-04-30T05:55:36.361Z,68.28
2023-04-30T05:58:03.002Z,67.95
2023-04-30T06:00:29.565Z,67.40
2023-04-30T06:02:56.317Z,66.92
2023-04-30T06:05:23.077Z,66.65
2023-04-30T06:07:49.679Z,66.75
2023-04-30T06:10:16.280Z,66.18
2023-04-30T06:12:42.846Z,65.59
2023-04-30T06:15:09.758Z,65.26
2023-04-30T06:17:36.439Z,65.27
2023-04-30T06:20:06.998Z,64.21
2023-04-30T06:26:15.365Z,64.71
2023-04-30T06:28:41.940Z,63.67
2023-04-30T06:31:08.758Z,63.49
2023-04-30T06:33:35.363Z,62.92
2023-04-30T06:36:14.002Z,63.11
2023-04-30T06:38:41.671Z,61.75
2023-04-30T06:41:08.626Z,61.31
2023-04-30T06:43:35.371Z,60.05
2023-04-30T06:46:02.082Z,59.56
2023-04-30T06:48:28.663Z,59.26
2023-04-30T06:50:55.381Z,58.41
2023-04-30T06:53:21.986Z,58.42
2023-04-30T06:55:48.867Z,56.94
2023-04-30T06:58:15.456Z,56.01
2023-04-30T07:00:42.945Z,54.72
2023-04-30T07:03:09.763Z,54.12
2023-04-30T07:05:36.558Z,53.92
2023-04-30T07:08:04.044Z,53.90
2023-04-30T07:10:31.721Z,53.16
2023-04-30T07:12:59.268Z,52.82
2023-04-30T07:15:26.089Z,51.82
2023-04-30T07:17:53.033Z,51.62
2023-04-30T07:20:19.692Z,52.21
2023-04-30T07:22:46.541Z,52.31
2023-04-30T07:25:13.970Z,52.27
2023-04-30T07:27:41.012Z,51.77
2023-04-30T07:30:11.688Z,51.49
2023-04-30T07:32:41.043Z,51.66
2023-04-30T07:35:08.009Z,52.13
2023-04-30T07:37:36.048Z,51.83
2023-04-30T07:40:04.171Z,51.01
2023-04-30T07:42:30.736Z,51.19
2023-04-30T07:45:04.848Z,49.80
2023-04-30T07:47:31.429Z,49.94
2023-04-30T07:49:58.492Z,49.98
2023-04-30T07:52:25.085Z,48.97
2023-04-30T07:54:51.898Z,49.28
2023-04-30T07:57:19.225Z,49.28
2023-04-30T07:59:45.866Z,48.50
2023-04-30T08:02:12.573Z,47.77
2023-04-30T08:04:39.195Z,46.35
2023-04-30T08:07:05.896Z,46.23
2023-04-30T08:09:32.761Z,45.90
2023-04-30T08:11:59.390Z,46.46
2023-04-30T08:14:26.006Z,44.86
2023-04-30T08:16:52.956Z,45.94
2023-04-30T08:19:19.569Z,45.80
2023-04-30T08:24:21.438Z,45.04
2023-04-30T08:26:48.212Z,45.62
2023-04-30T08:29:14.754Z,45.09
2023-04-30T08:31:41.496Z,45.75
2023-04-30T08:34:08.139Z,45.37
2023-04-30T08:37:02.569Z,44.04
2023-04-30T08:43:08.785Z,43.49
2023-04-30T08:45:41.348Z,42.97
2023-04-30T08:48:15.211Z,42.04
2023-04-30T08:50:41.912Z,42.33
2023-04-30T08:53:11.087Z,42.47
2023-04-30T08:55:39.761Z,42.05
2023-04-30T08:58:08.364Z,40.03
2023-04-30T09:00:38.087Z,39.66
2023-04-30T09:03:05.786Z,39.98
2023-04-30T09:05:32.469Z,40.66
2023-04-30T09:08:03.676Z,39.88
2023-04-30T09:10:34.751Z,39.78
2023-04-30T09:13:09.295Z,39.58
2023-04-30T09:15:38.737Z,37.94
2023-04-30T09:18:19.998Z,38.76
2023-04-30T09:21:03.329Z,39.39
2023-04-30T09:23:30.779Z,39.35
2023-04-30T09:25:57.594Z,39.31
2023-04-30T09:28:26.522Z,39.25
2023-04-30T09:30:53.520Z,38.68
2023-04-30T09:33:20.511Z,38.71
2023-04-30T09:35:47.224Z,38.47
2023-04-30T09:38:28.172Z,38.65
2023-04-30T09:40:55.093Z,37.27
2023-04-30T09:43:21.737Z,38.96
2023-04-30T09:45:52.424Z,37.59
2023-04-30T09:48:24.564Z,37.12
2023-04-30T09:50:54.979Z,37.52
2023-04-30T09:53:24.287Z,37.08
2023-04-30T09:55:51.660Z,35.92
2023-04-30T09:58:19.703Z,36.49
2023-04-30T10:00:49.449Z,37.40
2023-04-30T10:03:16.900Z,37.63
2023-04-30T10:05:48.672Z,36.80
2023-04-30T10:08:21.451Z,36.13
2023-04-30T10:10:51.485Z,35.68
2023-04-30T10:13:21.882Z,35.91
2023-04-30T10:15:54.428Z,35.14
2023-04-30T10:18:31.298Z,33.75
2023-04-30T10:21:02.610Z,34.82
2023-04-30T10:23:30.450Z,35.58
2023-04-30T10:28:39.094Z,36.02
2023-04-30T10:31:07.246Z,35.85
2023-04-30T10:33:52.262Z,35.29
2023-04-30T10:36:33.894Z,35.23
2023-04-30T10:39:01.619Z,34.74
2023-04-30T10:42:18.236Z,35.05
2023-04-30T10:45:12.811Z,36.37
2023-04-30T10:47:46.190Z,37.49
2023-04-30T10:50:13.516Z,37.13
2023-04-30T10:52:40.196Z,36.93
2023-04-30T10:55:08.826Z,37.03
2023-04-30T10:57:43.835Z,37.20
2023-04-30T11:00:10.546Z,38.11
2023-04-30T11:02:44.822Z,38.70
2023-04-30T11:05:14.432Z,37.56
2023-04-30T11:07:49.193Z,37.57
2023-04-30T11:10:16.570Z,36.63
2023-04-30T11:12:51.270Z,36.23
2023-04-30T11:15:20.222Z,35.22
2023-04-30T11:17:49.497Z,34.88
2023-04-30T11:20:22.969Z,34.54
2023-04-30T11:23:14.249Z,34.75
2023-04-30T11:25:46.571Z,34.93
2023-04-30T11:28:34.729Z,35.42
2023-04-30T11:31:02.154Z,34.90
2023-04-30T11:33:44.249Z,34.79
2023-04-30T11:36:10.805Z,36.11
2023-04-30T11:38:40.780Z,35.69
2023-04-30T11:41:23.368Z,35.98
2023-04-30T11:43:49.953Z,36.06
2023-04-30T11:46:35.084Z,35.64
2023-04-30T11:49:01.841Z,35.62
2023-04-30T11:51:28.656Z,36.29
2023-04-30T11:53:55.395Z,36.42
2023-04-30T11:56:24.130Z,36.36
2023-04-30T11:58:52.765Z,35.70
2023-04-30T12:01:21.026Z,35.60
2023-04-30T12:03:49.947Z,35.61
2023-04-30T12:06:28.017Z,34.88
2023-04-30T12:08:56.815Z,35.97
2023-04-30T12:11:27.642Z,35.50
2023-04-30T12:13:55.872Z,35.50
2023-04-30T12:16:25.268Z,34.63
2023-04-30T12:18:52.845Z,35.07
2023-04-30T12:21:21.703Z,33.85
2023-04-30T12:23:48.378Z,33.92
2023-04-30T12:26:15.098Z,34.65
2023-04-30T12:28:41.718Z,34.43
2023-04-30T12:31:08.707Z,34.21
2023-04-30T12:33:37.254Z,34.80
2023-04-30T12:36:04.160Z,35.10
2023-04-30T12:38:30.753Z,35.08
2023-04-30T12:40:57.606Z,35.33
2023-04-30T12:43:24.173Z,35.20
2023-04-30T12:48:44.190Z,34.28
2023-04-30T12:51:11.478Z,34.20
2023-04-30T12:53:47.340Z,34.64
2023-04-30T12:56:16.483Z,34.08
2023-04-30T12:58:49.837Z,33.54
2023-04-30T13:02:14.281Z,33.54
2023-04-30T13:05:16.195Z,34.29
2023-04-30T13:07:42.836Z,34.03
2023-04-30T13:10:09.784Z,33.75
2023-04-30T13:12:36.423Z,34.25
2023-04-30T13:15:03.985Z,34.54
2023-04-30T13:17:30.582Z,34.50
2023-04-30T13:19:57.564Z,34.55
2023-04-30T13:22:29.467Z,34.55
2023-04-30T13:24:56.021Z,33.27
2023-04-30T13:27:22.586Z,35.08
2023-04-30T13:29:49.209Z,34.16
2023-04-30T13:32:17.088Z,33.78
2023-04-30T13:34:43.775Z,33.65
2023-04-30T13:37:10.744Z,33.44
2023-04-30T13:39:37.267Z,32.69
2023-04-30T13:42:04.544Z,32.35
2023-04-30T13:44:33.858Z,32.50
2023-04-30T13:47:00.632Z,32.71
2023-04-30T13:49:27.327Z,33.07
2023-04-30T13:52:40.697Z,32.92
2023-04-30T13:55:52.740Z,33.72
2023-04-30T13:58:19.473Z,33.33
2023-04-30T14:00:46.299Z,33.33
2023-04-30T14:03:14.169Z,33.64
2023-04-30T14:05:40.910Z,33.78
2023-04-30T14:08:07.463Z,33.77
2023-04-30T14:10:34.029Z,33.85
2023-04-30T14:13:00.735Z,34.14
2023-04-30T14:15:30.596Z,33.71
2023-04-30T14:17:57.263Z,33.18
2023-04-30T14:20:24.916Z,33.33
2023-04-30T14:22:51.542Z,33.17
2023-04-30T14:25:18.243Z,33.14
2023-04-30T14:27:44.816Z,32.61
2023-04-30T14:30:11.986Z,32.70
2023-04-30T14:32:38.628Z,32.73
2023-04-30T14:35:05.981Z,32.95
2023-04-30T14:37:32.762Z,32.53
2023-04-30T14:40:00.420Z,32.02
2023-04-30T14:42:26.998Z,31.97
2023-04-30T14:44:53.541Z,32.57
2023-04-30T14:47:21.627Z,32.27
2023-04-30T14:49:50.263Z,32.26
2023-04-30T14:52:16.840Z,32.26
2023-04-30T14:54:43.495Z,32.59
2023-04-30T14:57:10.151Z,32.13
2023-04-30T14:59:38.846Z,32.14
2023-04-30T15:02:05.870Z,32.76
2023-04-30T15:04:32.484Z,33.44
2023-04-30T15:06:59.033Z,33.31
2023-04-30T15:09:25.609Z,33.21
2023-04-30T15:11:52.242Z,33.03
2023-04-30T15:14:18.876Z,32.86
2023-04-30T15:16:45.690Z,32.66
2023-04-30T15:19:12.360Z,32.86
2023-04-30T15:21:39.115Z,32.71
2023-04-30T15:24:06.370Z,32.10
2023-04-30T15:26:33.070Z,38.29
2023-04-30T15:28:59.918Z,39.04
2023-04-30T15:31:26.922Z,39.22
2023-04-30T15:33:53.596Z,40.63
2023-04-30T15:36:23.287Z,41.85
2023-04-30T15:38:49.868Z,42.59
2023-04-30T15:41:16.423Z,43.08
2023-04-30T15:43:42.986Z,43.83
2023-04-30T15:46:09.686Z,44.15
2023-04-30T15:48:36.296Z,44.16
2023-04-30T15:51:03.220Z,44.54
2023-04-30T15:53:29.829Z,44.07
2023-04-30T15:55:57.374Z,43.35
2023-04-30T15:58:23.949Z,43.90
2023-04-30T16:00:50.498Z,43.52
2023-04-30T16:03:17.223Z,44.44
2023-04-30T16:05:43.976Z,43.47
2023-04-30T16:08:10.811Z,43.80
2023-04-30T16:10:38.714Z,44.05
2023-04-30T16:13:05.471Z,44.15
2023-04-30T16:15:32.448Z,44.18
2023-04-30T16:17:59.164Z,44.15
2023-04-30T16:20:27.354Z,44.33
2023-04-30T16:22:54.871Z,46.60
2023-04-30T16:25:22.226Z,48.44
2023-04-30T16:27:49.746Z,53.33
2023-04-30T16:30:16.474Z,56.08
2023-04-30T16:32:43.129Z,58.70
2023-04-30T16:35:10.213Z,58.33
2023-04-30T16:37:36.767Z,58.09
2023-04-30T16:40:03.602Z,59.03
2023-04-30T16:42:30.888Z,59.16
2023-04-30T16:44:57.479Z,58.67
2023-04-30T16:47:24.117Z,58.95
2023-04-30T16:49:50.748Z,58.61
2023-04-30T16:52:17.389Z,58.74
2023-04-30T16:54:44.198Z,58.13
2023-04-30T16:57:11.062Z,57.10
2023-04-30T16:59:37.630Z,57.24
2023-04-30T17:02:04.830Z,56.25
2023-04-30T17:04:31.684Z,56.04
2023-04-30T17:06:59.197Z,55.46
2023-04-30T17:09:32.302Z,55.38
2023-04-30T17:11:58.874Z,54.94
2023-04-30T17:14:25.451Z,54.57
2023-04-30T17:16:52.457Z,54.95
2023-04-30T17:19:19.096Z,56.99
2023-04-30T17:21:45.860Z,55.15
2023-04-30T17:24:12.591Z,54.95
2023-04-30T17:26:39.231Z,54.68
2023-04-30T17:29:06.283Z,54.92
2023-04-30T17:31:33.244Z,54.13
2023-04-30T17:34:03.206Z,53.94
2023-04-30T17:36:30.360Z,54.15
2023-04-30T17:38:59.616Z,53.60
2023-04-30T17:41:26.413Z,53.07
2023-04-30T17:43:52.976Z,52.92
2023-04-30T17:46:19.635Z,53.31
2023-04-30T17:48:47.083Z,53.29
2023-04-30T17:51:13.714Z,53.96
2023-04-30T17:53:40.761Z,53.83
2023-04-30T17:56:08.741Z,53.64
2023-04-30T17:58:36.589Z,53.70
2023-04-30T18:01:05.588Z,53.56
2023-04-30T18:03:32.602Z,53.40
2023-04-30T18:05:59.344Z,53.44
2023-04-30T18:08:26.331Z,53.47
2023-04-30T18:10:53.178Z,53.48
2023-04-30T18:13:19.733Z,53.55
2023-04-30T18:18:21.657Z,53.73
2023-04-30T18:20:49.681Z,53.91
2023-04-30T18:23:16.611Z,53.98
2023-04-30T18:25:43.678Z,54.08
2023-04-30T18:33:41.666Z,53.97
2023-04-30T18:36:09.073Z,53.94
2023-04-30T18:38:35.625Z,53.84
2023-04-30T18:41:02.407Z,53.86
2023-04-30T18:43:28.985Z,53.54
2023-04-30T18:45:55.578Z,53.54
2023-04-30T18:48:23.046Z,53.34
2023-04-30T18:50:50.157Z,53.62
2023-04-30T18:53:17.386Z,53.81
2023-04-30T18:55:46.996Z,54.13
2023-04-30T18:58:13.800Z,54.12
2023-04-30T19:00:43.521Z,54.17
2023-04-30T19:03:10.398Z,54.30
2023-04-30T19:05:37.548Z,54.49
2023-04-30T19:08:04.331Z,54.52
2023-04-30T19:10:30.934Z,54.52
2023-04-30T19:12:57.482Z,54.66
2023-04-30T19:15:25.621Z,54.84
2023-04-30T19:17:52.271Z,54.94
2023-04-30T19:20:19.044Z,55.89
2023-04-30T19:22:45.653Z,55.95
2023-04-30T19:25:12.439Z,55.87
2023-04-30T19:27:39.176Z,56.48
2023-04-30T19:30:06.855Z,56.42
2023-04-30T19:32:33.473Z,56.06
2023-04-30T19:35:00.147Z,56.28
2023-04-30T19:37:26.856Z,56.84
2023-04-30T19:39:53.595Z,57.62
2023-04-30T19:42:20.423Z,57.50
2023-04-30T19:44:47.106Z,57.79
2023-04-30T19:47:13.788Z,58.71
2023-04-30T19:49:40.417Z,59.22
2023-04-30T19:52:08.031Z,59.62
2023-04-30T19:54:34.694Z,59.26
2023-04-30T19:57:02.129Z,58.33
2023-04-30T19:59:28.733Z,59.69
2023-04-30T20:01:55.378Z,60.74
2023-04-30T20:04:22.441Z,60.97
2023-04-30T20:06:56.001Z,61.46
2023-04-30T20:09:23.261Z,61.53
2023-04-30T20:11:51.607Z,61.51
2023-04-30T20:14:18.909Z,61.27
2023-04-30T20:16:46.470Z,61.50
2023-04-30T20:19:14.109Z,62.31
2023-04-30T20:21:40.698Z,62.30
2023-04-30T20:24:07.446Z,62.20
2023-04-30T20:26:34.525Z,62.30
2023-04-30T20:29:01.148Z,61.93
2023-04-30T20:31:31.269Z,62.45
2023-04-30T20:33:57.948Z,61.63
2023-04-30T20:36:24.696Z,60.51
2023-04-30T20:38:54.280Z,61.91
2023-04-30T20:41:39.487Z,62.05
2023-04-30T20:44:06.057Z,61.46
2023-04-30T20:46:33.340Z,61.11
2023-04-30T20:49:04.284Z,60.55
2023-04-30T20:51:31.258Z,60.82
2023-04-30T20:53:57.832Z,60.86
2023-04-30T20:56:24.474Z,61.16
2023-04-30T20:58:51.058Z,62.34
2023-04-30T21:01:17.646Z,62.64
2023-04-30T21:03:44.280Z,62.78
2023-04-30T21:06:11.383Z,62.88
2023-04-30T21:08:38.037Z,62.70
2023-04-30T21:11:04.614Z,62.95
2023-04-30T21:13:31.173Z,63.58
2023-04-30T21:15:57.999Z,63.23
2023-04-30T21:18:27.078Z,63.23
2023-04-30T21:20:53.821Z,63.37
2023-04-30T21:23:20.396Z,64.22
2023-04-30T21:28:35.706Z,64.07
2023-04-30T21:31:09.172Z,64.11
2023-04-30T21:33:37.388Z,63.69
2023-04-30T21:36:05.036Z,64.83
2023-04-30T21:38:31.780Z,64.26
2023-04-30T21:41:58.236Z,64.02
2023-04-30T21:44:50.481Z,63.68
2023-04-30T21:47:17.612Z,62.65
2023-04-30T21:49:44.218Z,62.28
2023-04-30T21:52:11.678Z,61.82
2023-04-30T21:54:38.308Z,61.37
2023-04-30T21:57:04.981Z,60.73
2023-04-30T22:02:20.019Z,58.52
2023-04-30T22:04:49.766Z,58.15
2023-04-30T22:07:16.376Z,57.69
2023-04-30T22:09:44.952Z,57.80
2023-04-30T22:12:12.161Z,57.69
2023-04-30T22:15:10.023Z,57.46
2023-04-30T22:18:15.998Z,57.30
2023-04-30T22:20:49.749Z,57.45
2023-04-30T22:23:17.349Z,57.32
2023-04-30T22:25:43.987Z,56.31
2023-04-30T22:28:10.642Z,55.43
2023-04-30T22:30:38.344Z,55.26
2023-04-30T22:33:05.470Z,54.86
2023-04-30T22:35:35.670Z,55.56
2023-04-30T22:38:03.504Z,55.00
2023-04-30T22:40:33.046Z,53.77
2023-04-30T22:43:00.693Z,53.26
2023-04-30T22:45:29.976Z,53.14
2023-04-30T22:47:59.406Z,52.70
2023-04-30T22:50:27.437Z,52.72
2023-04-30T22:52:56.251Z,53.05
2023-04-30T22:55:23.261Z,53.25
2023-04-30T22:57:49.809Z,53.36
2023-04-30T23:00:18.207Z,53.56
2023-04-30T23:02:44.789Z,54.60
2023-04-30T23:05:51.582Z,52.49
2023-04-30T23:08:46.153Z,52.89
2023-04-30T23:11:12.813Z,52.54
2023-04-30T23:13:39.415Z,52.73
2023-04-30T23:16:09.096Z,52.47
2023-04-30T23:18:38.980Z,53.51
2023-04-30T23:21:06.143Z,54.20
2023-04-30T23:23:51.174Z,54.35
2023-04-30T23:26:17.815Z,53.31
2023-04-30T23:28:44.398Z,53.50
2023-04-30T23:31:10.961Z,54.05
2023-04-30T23:33:37.707Z,52.88
2023-04-30T23:36:28.390Z,52.58
2023-04-30T23:39:13.508Z,52.51
2023-04-30T23:41:40.112Z,53.46
2023-04-30T23:44:06.768Z,53.40
2023-04-30T23:46:33.372Z,52.63
2023-04-30T23:49:00.059Z,51.52
2023-04-30T23:51:26.644Z,51.40
2023-04-30T23:56:41.683Z,51.35
2023-04-30T23:59:08.288Z,51.70
